Time;durP1;ratioP1;P1;durP2;ratioP2;P2;SDS_P1;SDS_P2;PMS_P1;PMS_P2;Temp;Humidity;BMP_temperature;BMP_pressure;BME280_temperature;BME280_humidity;BME280_pressure;Samples;Min_cycle;Max_cycle;Signal;HPM_P1;HPM_P2
2022/12/09 00:01:29;;;;;;;12.18;5.93;;;2.40;99.90;;;;;;5097122;28;20052;-73
2022/12/09 00:03:55;;;;;;;10.18;5.43;;;2.40;99.90;;;;;;5097098;28;20036;-74
2022/12/09 00:06:23;;;;;;;9.57;6.20;;;2.40;99.90;;;;;;5097138;28;20077;-74
2022/12/09 00:08:50;;;;;;;9.98;5.57;;;2.40;99.90;;;;;;5097442;28;20139;-74
2022/12/09 00:11:16;;;;;;;9.25;6.53;;;2.40;99.90;;;;;;5097118;28;20059;-74
2022/12/09 00:13:42;;;;;;;10.60;6.73;;;2.30;99.90;;;;;;5097099;28;20392;-75
2022/12/09 00:16:14;;;;;;;15.13;7.38;;;2.30;99.90;;;;;;5096840;28;20044;-74
2022/12/09 00:18:40;;;;;;;9.60;6.95;;;2.30;99.90;;;;;;5096709;28;20480;-75
2022/12/09 00:21:17;;;;;;;10.93;6.47;;;2.30;99.90;;;;;;5096918;28;20048;-74
2022/12/09 00:23:43;;;;;;;11.98;7.10;;;2.30;99.90;;;;;;5096893;28;20395;-75
2022/12/09 00:26:10;;;;;;;11.10;7.38;;;2.40;99.90;;;;;;5096598;28;20048;-74
2022/12/09 00:28:36;;;;;;;11.43;7.10;;;2.40;99.90;;;;;;5096665;28;20051;-73
2022/12/09 00:31:03;;;;;;;14.52;7.22;;;2.30;99.90;;;;;;5096722;28;20055;-74
2022/12/09 00:33:30;;;;;;;17.05;8.32;;;2.30;99.90;;;;;;5096650;28;20051;-75
2022/12/09 00:36:22;;;;;;;12.68;7.93;;;2.30;99.90;;;;;;5096624;28;20047;-74
2022/12/09 00:38:48;;;;;;;14.27;8.55;;;2.30;99.90;;;;;;5096009;28;20062;-74
2022/12/09 00:41:15;;;;;;;14.30;7.82;;;2.30;99.90;;;;;;5096564;28;20416;-74
2022/12/09 00:43:41;;;;;;;14.68;8.20;;;2.30;99.90;;;;;;5096505;28;20123;-74
2022/12/09 00:46:08;;;;;;;14.65;8.50;;;2.30;99.90;;;;;;5096007;28;20040;-74
2022/12/09 00:48:34;;;;;;;19.05;7.72;;;2.30;99.90;;;;;;5096417;28;20083;-74
2022/12/09 00:51:00;;;;;;;14.27;8.73;;;2.30;99.90;;;;;;5096576;28;20044;-75
2022/12/09 00:53:27;;;;;;;15.53;9.33;;;2.30;99.90;;;;;;5096264;28;20086;-74
2022/12/09 00:55:52;;;;;;;16.00;8.80;;;2.30;99.90;;;;;;5096237;28;20044;-74
2022/12/09 00:58:18;;;;;;;15.52;8.95;;;2.30;99.90;;;;;;5096143;28;20102;-73
2022/12/09 01:00:44;;;;;;;13.45;8.07;;;2.30;99.90;;;;;;5096156;28;20039;-74
2022/12/09 01:03:16;;;;;;;14.82;7.85;;;2.30;99.90;;;;;;5096033;28;20353;-74
2022/12/09 01:05:42;;;;;;;15.48;8.85;;;2.30;99.90;;;;;;5095993;28;20048;-73
2022/12/09 01:08:09;;;;;;;15.23;8.35;;;2.40;99.90;;;;;;5095948;28;20055;-73
2022/12/09 01:10:36;;;;;;;16.50;8.77;;;2.40;99.90;;;;;;5095914;28;20048;-74
2022/12/09 01:13:02;;;;;;;15.25;9.20;;;2.30;99.90;;;;;;5095875;28;20499;-73
2022/12/09 01:15:29;;;;;;;15.45;8.68;;;2.30;99.90;;;;;;5096021;28;20047;-75
2022/12/09 01:17:55;;;;;;;14.77;8.50;;;2.30;99.90;;;;;;5095750;28;20044;-74
2022/12/09 01:20:21;;;;;;;14.87;9.10;;;2.30;99.90;;;;;;5095790;28;20043;-73
2022/12/09 01:22:46;;;;;;;15.23;9.18;;;2.30;99.90;;;;;;5095444;28;20392;-75
2022/12/09 01:25:13;;;;;;;15.50;9.30;;;2.30;99.90;;;;;;5095856;28;20109;-74
2022/12/09 01:27:38;;;;;;;18.75;10.43;;;2.30;99.90;;;;;;5096001;28;20056;-74
2022/12/09 01:30:06;;;;;;;18.13;9.45;;;2.30;99.90;;;;;;5095455;28;20052;-74
2022/12/09 01:32:31;;;;;;;16.02;9.60;;;2.30;99.90;;;;;;5095469;28;20047;-74
2022/12/09 01:34:57;;;;;;;17.60;9.80;;;2.20;99.90;;;;;;5095604;28;20040;-74
2022/12/09 01:37:22;;;;;;;16.10;9.30;;;2.30;99.90;;;;;;5095329;28;20090;-73
2022/12/09 01:39:48;;;;;;;15.52;9.25;;;2.20;99.90;;;;;;5095424;28;20040;-75
2022/12/09 01:42:19;;;;;;;15.15;9.13;;;2.20;99.90;;;;;;5095261;28;20044;-74
2022/12/09 01:45:29;;;;;;;17.20;8.98;;;2.20;99.90;;;;;;5095161;28;20033;-74
2022/12/09 01:48:01;;;;;;;16.98;9.77;;;2.20;99.90;;;;;;5012938;28;20061;-73
2022/12/09 01:50:28;;;;;;;17.45;10.40;;;2.20;99.90;;;;;;5012899;28;20053;-73
2022/12/09 01:52:54;;;;;;;15.15;9.43;;;2.20;99.90;;;;;;5058441;28;20506;-74
2022/12/09 01:55:20;;;;;;;15.40;9.48;;;2.20;99.90;;;;;;5093869;28;20048;-74
2022/12/09 01:57:46;;;;;;;21.05;10.32;;;2.20;99.90;;;;;;5093101;28;20051;-74
2022/12/09 02:00:13;;;;;;;15.02;9.65;;;2.20;99.90;;;;;;5094935;28;20051;-73
2022/12/09 02:02:39;;;;;;;16.83;9.35;;;2.20;99.90;;;;;;5094751;28;20131;-74
2022/12/09 02:05:05;;;;;;;18.10;10.48;;;2.20;99.90;;;;;;5093905;28;20440;-73
2022/12/09 02:07:31;;;;;;;17.50;10.00;;;2.20;99.90;;;;;;5094760;28;20083;-73
2022/12/09 02:09:57;;;;;;;16.13;10.50;;;2.10;99.90;;;;;;5094720;28;20135;-74
2022/12/09 02:12:43;;;;;;;17.52;9.90;;;2.10;99.90;;;;;;5095024;28;20131;-74
2022/12/09 02:15:16;;;;;;;16.92;10.38;;;2.10;99.90;;;;;;5094647;28;20043;-75
2022/12/09 02:17:55;;;;;;;15.30;9.73;;;2.10;99.90;;;;;;5095105;28;20381;-74
2022/12/09 02:20:54;;;;;;;18.10;9.38;;;2.10;99.90;;;;;;5094861;28;20044;-75
2022/12/09 02:23:35;;;;;;;16.25;9.43;;;2.10;99.90;;;;;;5094410;28;20184;-75
2022/12/09 02:26:13;;;;;;;14.55;9.65;;;2.10;99.90;;;;;;5094709;28;20093;-75
2022/12/09 02:29:21;;;;;;;15.90;9.38;;;2.10;99.90;;;;;;5094591;28;20054;-74
2022/12/09 02:31:50;;;;;;;16.95;10.02;;;2.10;99.90;;;;;;5094499;28;20052;-74
2022/12/09 02:34:20;;;;;;;17.33;10.50;;;2.10;99.90;;;;;;5094241;28;20040;-74
2022/12/09 02:36:51;;;;;;;17.63;9.82;;;2.20;99.90;;;;;;5094779;28;20410;-74
2022/12/09 02:39:21;;;;;;;18.98;10.38;;;2.20;99.90;;;;;;5094265;28;20051;-74
2022/12/09 02:41:49;;;;;;;17.73;9.60;;;2.20;99.90;;;;;;5094182;28;20054;-75
2022/12/09 02:44:19;;;;;;;19.13;11.35;;;2.20;99.90;;;;;;5094138;28;20032;-74
2022/12/09 02:46:45;;;;;;;16.95;10.00;;;2.20;99.90;;;;;;5094147;28;20050;-74
2022/12/09 02:49:13;;;;;;;15.10;9.23;;;2.20;99.90;;;;;;5094083;28;20044;-75
2022/12/09 02:51:41;;;;;;;16.48;9.63;;;2.20;99.90;;;;;;5094102;28;20131;-74
2022/12/09 02:54:14;;;;;;;15.90;9.82;;;2.20;99.90;;;;;;5094292;28;20044;-74
2022/12/09 02:56:46;;;;;;;15.55;9.52;;;2.20;99.90;;;;;;5094176;28;20119;-74
2022/12/09 02:59:11;;;;;;;18.88;10.43;;;2.10;99.90;;;;;;5093989;28;20127;-75
2022/12/09 03:02:01;;;;;;;17.35;9.88;;;2.30;99.90;;;;;;5094193;28;20098;-74
2022/12/09 03:04:28;;;;;;;18.83;10.40;;;2.10;99.90;;;;;;5094026;28;20044;-74
2022/12/09 03:06:57;;;;;;;15.48;10.07;;;2.00;99.90;;;;;;5093834;28;20048;-75
2022/12/09 03:09:36;;;;;;;18.63;10.07;;;2.00;99.90;;;;;;5093811;28;20491;-74
2022/12/09 03:12:07;;;;;;;17.40;10.18;;;2.00;99.90;;;;;;5094475;28;20067;-73
2022/12/09 03:14:39;;;;;;;17.90;9.52;;;1.90;99.90;;;;;;5093815;28;20040;-75
2022/12/09 03:17:14;;;;;;;16.85;9.52;;;1.80;99.90;;;;;;5093776;28;20050;-74
2022/12/09 03:19:46;;;;;;;21.08;10.50;;;1.70;99.90;;;;;;5093725;28;20058;-73
2022/12/09 03:22:16;;;;;;;20.45;9.38;;;1.70;99.90;;;;;;5093556;28;20055;-74
2022/12/09 03:24:52;;;;;;;17.67;10.45;;;1.60;99.90;;;;;;5094327;28;20075;-75
2022/12/09 03:27:26;;;;;;;17.00;10.25;;;1.60;99.90;;;;;;5093466;28;20058;-74
2022/12/09 03:29:52;;;;;;;16.25;10.43;;;1.50;99.90;;;;;;5093794;28;20048;-74
2022/12/09 03:32:22;;;;;;;16.40;10.10;;;1.50;99.90;;;;;;5093404;28;20416;-73
2022/12/09 03:34:53;;;;;;;17.52;10.65;;;1.40;99.90;;;;;;5093528;28;20047;-75
2022/12/09 03:37:19;;;;;;;16.30;9.73;;;1.40;99.90;;;;;;5093602;28;20048;-74
2022/12/09 03:39:47;;;;;;;17.52;10.52;;;1.40;99.90;;;;;;5093546;28;20047;-74
2022/12/09 03:42:25;;;;;;;16.67;9.57;;;1.40;99.90;;;;;;5093521;28;20044;-74
2022/12/09 03:45:01;;;;;;;15.75;9.57;;;1.40;99.90;;;;;;5093483;28;20040;-74
2022/12/09 03:47:27;;;;;;;17.83;10.93;;;1.40;99.90;;;;;;5093439;28;20079;-74
2022/12/09 03:49:53;;;;;;;19.25;10.77;;;1.40;99.90;;;;;;5093800;28;20079;-75
2022/12/09 03:52:30;;;;;;;16.63;9.65;;;1.40;99.90;;;;;;5093276;28;20083;-74
2022/12/09 03:55:06;;;;;;;20.25;10.73;;;1.40;99.90;;;;;;5093589;28;20044;-74
2022/12/09 03:57:36;;;;;;;20.38;10.73;;;1.40;99.90;;;;;;5092235;28;20084;-75
2022/12/09 04:00:03;;;;;;;17.98;9.90;;;1.40;99.90;;;;;;5093483;28;20044;-74
2022/12/09 04:02:29;;;;;;;17.92;9.98;;;1.30;99.90;;;;;;5093371;28;20073;-75
2022/12/09 04:04:54;;;;;;;20.55;10.38;;;1.40;99.90;;;;;;5093195;28;20612;-74
2022/12/09 04:07:20;;;;;;;18.00;10.55;;;1.30;99.90;;;;;;5093369;28;20043;-74
2022/12/09 04:09:46;;;;;;;16.52;10.35;;;1.30;99.90;;;;;;5093216;28;20491;-73
2022/12/09 04:12:11;;;;;;;19.88;10.35;;;1.30;99.90;;;;;;5093243;28;20157;-74
2022/12/09 04:14:37;;;;;;;19.55;10.32;;;1.30;99.90;;;;;;5093622;28;20396;-73
2022/12/09 04:17:02;;;;;;;16.80;10.07;;;1.30;99.90;;;;;;5093147;28;20044;-75
2022/12/09 04:19:28;;;;;;;16.48;10.48;;;1.30;99.90;;;;;;5093843;28;20043;-74
2022/12/09 04:21:54;;;;;;;17.83;11.10;;;1.40;99.90;;;;;;5097098;28;20097;-73
2022/12/09 04:24:19;;;;;;;20.27;11.75;;;1.30;99.90;;;;;;5096878;28;20083;-73
2022/12/09 04:26:45;;;;;;;21.02;11.02;;;1.30;99.90;;;;;;5096706;28;20080;-75
2022/12/09 04:29:12;;;;;;;15.93;10.15;;;1.30;99.90;;;;;;5097193;28;20082;-74
2022/12/09 04:31:38;;;;;;;19.15;10.82;;;1.30;99.90;;;;;;5097095;28;20101;-74
2022/12/09 04:34:04;;;;;;;23.90;10.90;;;1.40;99.90;;;;;;5096648;28;20472;-75
2022/12/09 04:36:29;;;;;;;18.60;11.07;;;1.40;99.90;;;;;;5096649;28;20047;-75
2022/12/09 04:38:55;;;;;;;19.85;11.25;;;1.40;99.90;;;;;;5096608;28;20498;-75
2022/12/09 04:41:21;;;;;;;18.77;11.85;;;1.40;99.90;;;;;;5096429;28;20040;-73
2022/12/09 04:43:47;;;;;;;16.67;10.50;;;1.40;99.90;;;;;;5096398;28;20123;-73
2022/12/09 04:46:18;;;;;;;21.13;10.47;;;1.40;99.90;;;;;;5096508;28;20118;-74
2022/12/09 04:48:43;;;;;;;17.30;11.35;;;1.40;99.90;;;;;;5096374;28;20274;-75
2022/12/09 04:51:11;;;;;;;19.08;10.43;;;1.40;99.90;;;;;;5096346;28;20067;-74
2022/12/09 04:53:37;;;;;;;21.25;11.55;;;1.50;99.90;;;;;;5096252;28;20055;-73
2022/12/09 04:56:11;;;;;;;18.77;11.32;;;1.50;99.90;;;;;;5096218;28;20040;-74
2022/12/09 04:58:37;;;;;;;21.58;11.13;;;1.50;99.90;;;;;;5096705;28;20055;-74
2022/12/09 05:01:07;;;;;;;16.30;10.30;;;1.40;99.90;;;;;;5096000;28;20044;-73
2022/12/09 05:03:34;;;;;;;20.23;12.00;;;1.40;99.90;;;;;;5096424;28;20048;-74
2022/12/09 05:06:06;;;;;;;18.30;11.23;;;1.40;99.90;;;;;;5096335;28;20040;-74
2022/12/09 05:08:31;;;;;;;22.45;11.57;;;1.40;99.90;;;;;;5096058;28;20126;-73
2022/12/09 05:10:58;;;;;;;20.50;11.25;;;1.40;99.90;;;;;;5095594;28;20336;-74
2022/12/09 05:13:25;;;;;;;20.35;11.30;;;1.30;99.90;;;;;;5095900;28;20040;-73
2022/12/09 05:15:52;;;;;;;19.90;11.43;;;1.40;99.90;;;;;;5095662;28;20047;-73
2022/12/09 05:18:18;;;;;;;;;;;1.30;99.90;;;;;;5096535;28;20090;-73
2022/12/09 05:20:44;;;;;;;19.25;11.60;;;1.30;99.90;;;;;;5095715;28;19975;-74
2022/12/09 05:23:09;;;;;;;25.00;12.55;;;1.40;99.90;;;;;;5095642;28;20043;-74
2022/12/09 05:25:35;;;;;;;19.65;11.45;;;1.40;99.90;;;;;;5095156;28;20086;-73
2022/12/09 05:28:01;;;;;;;18.75;11.43;;;1.30;99.90;;;;;;5095631;28;20388;-74
2022/12/09 05:30:26;;;;;;;22.08;12.23;;;1.30;99.90;;;;;;5095049;28;20120;-75
2022/12/09 05:32:52;;;;;;;23.15;13.20;;;1.40;99.90;;;;;;5094748;28;20069;-75
2022/12/09 05:35:17;;;;;;;19.83;11.55;;;1.30;99.90;;;;;;5095140;28;20077;-75
2022/12/09 05:37:43;;;;;;;20.75;11.77;;;1.40;99.90;;;;;;5095409;28;20093;-75
2022/12/09 05:40:09;;;;;;;20.98;12.57;;;1.30;99.90;;;;;;5095361;28;20036;-74
2022/12/09 05:42:35;;;;;;;22.85;11.63;;;1.40;99.90;;;;;;5095335;28;20089;-74
2022/12/09 05:45:00;;;;;;;20.98;12.00;;;1.40;99.90;;;;;;5095507;28;20032;-74
2022/12/09 05:47:26;;;;;;;22.92;13.40;;;1.40;99.90;;;;;;5095209;28;20492;-74
2022/12/09 05:49:51;;;;;;;24.27;13.30;;;1.30;99.90;;;;;;5095372;28;20141;-73
2022/12/09 05:52:17;;;;;;;24.40;13.30;;;1.40;99.90;;;;;;5094980;28;20039;-73
2022/12/09 05:54:42;;;;;;;22.50;12.35;;;1.30;99.90;;;;;;5095189;28;20048;-73
2022/12/09 05:57:08;;;;;;;23.48;13.20;;;1.30;99.90;;;;;;5095153;28;20044;-79
2022/12/09 05:59:34;;;;;;;26.23;13.15;;;2.20;99.90;;;;;;5094602;28;20044;-72
2022/12/09 06:01:59;;;;;;;24.33;13.15;;;1.30;99.90;;;;;;5095081;28;20436;-73
2022/12/09 06:04:25;;;;;;;24.05;12.23;;;1.20;99.90;;;;;;5095004;28;20070;-74
2022/12/09 06:06:50;;;;;;;22.73;11.48;;;1.20;99.90;;;;;;5095038;28;20035;-75
2022/12/09 06:09:16;;;;;;;22.83;12.50;;;1.20;99.90;;;;;;5094685;28;20114;-74
2022/12/09 06:11:41;;;;;;;24.00;12.80;;;1.10;99.90;;;;;;5094769;28;20105;-72
2022/12/09 06:14:09;;;;;;;26.23;13.13;;;1.10;99.90;;;;;;5094720;28;20088;-73
2022/12/09 06:16:35;;;;;;;24.98;13.52;;;1.10;99.90;;;;;;5094620;28;20048;-72
2022/12/09 06:19:01;;;;;;;23.00;12.07;;;1.10;99.90;;;;;;5094687;28;20092;-73
2022/12/09 06:21:26;;;;;;;20.05;12.23;;;1.70;99.90;;;;;;5094602;28;20123;-72
2022/12/09 06:23:52;;;;;;;25.42;14.43;;;1.10;99.90;;;;;;5094364;28;20103;-72
2022/12/09 06:26:27;;;;;;;21.80;11.93;;;0.90;99.90;;;;;;5094831;28;20048;-71
2022/12/09 06:28:54;;;;;;;19.85;11.95;;;0.90;99.90;;;;;;5094747;28;20044;-72
2022/12/09 06:31:20;;;;;;;21.42;12.23;;;0.80;99.90;;;;;;5094451;28;20120;-72
2022/12/09 06:33:46;;;;;;;21.00;11.77;;;0.70;99.90;;;;;;5094174;28;20040;-72
2022/12/09 06:36:12;;;;;;;22.60;12.65;;;0.60;99.90;;;;;;5094478;28;20050;-72
2022/12/09 06:38:38;;;;;;;22.63;11.98;;;0.50;99.90;;;;;;5094241;28;20060;-72
2022/12/09 06:41:12;;;;;;;22.35;11.80;;;0.50;99.90;;;;;;5094321;28;20042;-71
2022/12/09 06:43:38;;;;;;;27.00;13.23;;;0.40;99.90;;;;;;5093696;28;20052;-72
2022/12/09 06:46:12;;;;;;;23.30;12.93;;;0.30;99.90;;;;;;5094223;28;20040;-73
2022/12/09 06:48:37;;;;;;;23.70;12.93;;;0.20;99.90;;;;;;5094183;28;20391;-72
2022/12/09 06:51:03;;;;;;;21.40;12.90;;;0.20;99.90;;;;;;5094086;28;20123;-72
2022/12/09 06:53:28;;;;;;;23.73;12.25;;;0.10;99.90;;;;;;5094398;28;20040;-73
2022/12/09 06:55:54;;;;;;;23.23;13.48;;;0.10;99.90;;;;;;5094440;28;20060;-73
2022/12/09 06:58:20;;;;;;;19.30;12.20;;;0.10;99.90;;;;;;5094051;28;20096;-73
2022/12/09 07:00:45;;;;;;;24.48;12.63;;;0.00;99.90;;;;;;5093866;28;20043;-73
2022/12/09 07:03:11;;;;;;;23.60;12.48;;;-0.10;99.90;;;;;;5093872;28;20044;-73
2022/12/09 07:05:38;;;;;;;20.85;11.63;;;-0.10;99.90;;;;;;5093802;28;20051;-73
2022/12/09 07:08:03;;;;;;;21.20;11.98;;;-0.20;99.90;;;;;;5094081;28;20541;-73
2022/12/09 07:10:29;;;;;;;25.38;13.00;;;-0.20;99.90;;;;;;5094215;28;20036;-74
2022/12/09 07:12:55;;;;;;;24.33;13.27;;;-0.20;99.90;;;;;;5093713;28;20182;-73
2022/12/09 07:15:20;;;;;;;25.95;12.88;;;-0.30;99.90;;;;;;5093792;28;20040;-75
2022/12/09 07:17:46;;;;;;;24.38;12.90;;;-0.30;99.90;;;;;;5093738;28;20093;-74
2022/12/09 07:20:12;;;;;;;23.40;13.20;;;-0.30;99.90;;;;;;5093660;28;20047;-74
2022/12/09 07:22:37;;;;;;;24.00;13.40;;;-0.30;99.90;;;;;;5093460;28;20462;-73
2022/12/09 07:25:03;;;;;;;22.17;12.32;;;-0.40;99.90;;;;;;5093788;28;20126;-74
2022/12/09 07:27:29;;;;;;;28.90;13.02;;;-0.40;99.90;;;;;;5093335;28;20509;-73
2022/12/09 07:29:56;;;;;;;22.05;11.95;;;-0.50;99.90;;;;;;5093524;28;20126;-72
2022/12/09 07:32:22;;;;;;;22.67;13.00;;;-0.50;99.90;;;;;;5093743;28;20055;-75
2022/12/09 07:34:47;;;;;;;23.70;12.65;;;-0.50;99.90;;;;;;5093569;28;20036;-71
2022/12/09 07:37:13;;;;;;;23.52;12.40;;;-0.60;99.90;;;;;;5093484;28;20044;-73
2022/12/09 07:39:38;;;;;;;20.75;11.23;;;-0.60;99.90;;;;;;5093566;28;20083;-71
2022/12/09 07:42:04;;;;;;;23.38;12.57;;;-0.60;99.90;;;;;;5093555;28;20048;-71
2022/12/09 07:44:30;;;;;;;26.00;13.38;;;-0.60;99.90;;;;;;5093401;28;20044;-76
2022/12/09 07:46:55;;;;;;;26.02;12.65;;;-0.60;99.90;;;;;;5093407;28;20036;-77
2022/12/09 07:49:21;;;;;;;21.30;12.10;;;-0.70;99.90;;;;;;5093488;28;20047;-76
2022/12/09 07:51:47;;;;;;;23.60;12.65;;;-0.70;99.90;;;;;;5092296;28;20044;-74
2022/12/09 07:54:15;;;;;;;22.75;12.68;;;-0.70;99.90;;;;;;5093680;28;20041;-75
2022/12/09 07:56:41;;;;;;;29.27;14.43;;;-0.70;99.90;;;;;;5097436;28;20046;-74
2022/12/09 07:59:08;;;;;;;24.70;13.57;;;-0.70;99.90;;;;;;5097456;28;20069;-75
2022/12/09 08:01:34;;;;;;;32.45;15.95;;;-0.70;99.90;;;;;;5097323;28;20317;-73
2022/12/09 08:04:00;;;;;;;29.63;15.35;;;-0.60;99.90;;;;;;5097275;28;20085;-75
2022/12/09 08:06:28;;;;;;;29.10;15.07;;;-0.50;99.90;;;;;;5097234;28;20434;-75
2022/12/09 08:08:57;;;;;;;33.03;16.67;;;-0.50;99.90;;;;;;5097158;28;20036;-74
2022/12/09 08:11:25;;;;;;;29.67;16.35;;;-0.40;99.90;;;;;;5097045;28;20036;-75
2022/12/09 08:13:52;;;;;;;34.67;17.73;;;-0.30;99.90;;;;;;5096851;28;20472;-74
2022/12/09 08:16:19;;;;;;;35.33;17.85;;;-0.30;99.90;;;;;;5096948;28;20083;-75
2022/12/09 08:18:46;;;;;;;31.52;17.27;;;-0.30;99.90;;;;;;5096874;28;20100;-74
2022/12/09 08:21:15;;;;;;;33.63;17.40;;;-0.20;99.90;;;;;;5096922;28;20118;-74
2022/12/09 08:23:41;;;;;;;33.67;18.13;;;-0.20;99.90;;;;;;5096711;28;20308;-75
2022/12/09 08:26:08;;;;;;;35.90;17.77;;;-0.20;99.90;;;;;;5096797;28;20058;-82
2022/12/09 08:28:34;;;;;;;31.42;17.17;;;-0.20;99.90;;;;;;5096786;28;20052;-74
2022/12/09 08:31:06;;;;;;;38.38;18.38;;;-0.10;99.90;;;;;;5096669;28;20437;-74
2022/12/09 08:33:33;;;;;;;39.50;18.90;;;0.00;99.90;;;;;;5096633;28;20515;-75
2022/12/09 08:35:59;;;;;;;37.40;18.17;;;0.00;99.90;;;;;;5096604;28;20056;-74
2022/12/09 08:38:25;;;;;;;43.80;20.65;;;0.10;99.90;;;;;;5096606;28;20048;-74
2022/12/09 08:40:51;;;;;;;41.03;20.42;;;0.10;99.90;;;;;;5095485;28;20165;-76
2022/12/09 08:43:16;;;;;;;49.85;23.50;;;0.20;99.90;;;;;;5096369;28;20123;-75
2022/12/09 08:45:42;;;;;;;49.95;22.52;;;0.30;99.90;;;;;;5096515;28;20044;-75
2022/12/09 08:48:08;;;;;;;60.53;26.05;;;0.40;99.90;;;;;;5096252;28;20429;-74
2022/12/09 08:50:34;;;;;;;61.78;25.88;;;0.50;99.90;;;;;;5096803;28;20091;-75
2022/12/09 08:53:00;;;;;;;59.00;25.70;;;0.60;99.90;;;;;;5096382;28;20039;-74
2022/12/09 08:55:26;;;;;;;58.72;24.88;;;0.60;99.90;;;;;;5096269;28;20097;-75
2022/12/09 08:57:52;;;;;;;61.33;26.83;;;0.70;99.90;;;;;;5096163;28;20051;-76
2022/12/09 09:00:18;;;;;;;61.42;24.88;;;0.80;99.90;;;;;;5095976;28;20044;-74
2022/12/09 09:02:44;;;;;;;63.17;25.35;;;0.80;99.90;;;;;;5095908;28;20044;-76
2022/12/09 09:05:10;;;;;;;61.67;26.77;;;0.90;99.90;;;;;;5094471;28;20488;-76
2022/12/09 09:07:37;;;;;;;57.42;24.90;;;0.90;99.90;;;;;;5095988;28;20493;-76
2022/12/09 09:10:04;;;;;;;58.10;25.48;;;1.00;99.90;;;;;;5095880;28;20123;-77
2022/12/09 09:12:30;;;;;;;65.97;25.50;;;1.00;99.90;;;;;;5095911;28;20040;-76
2022/12/09 09:14:55;;;;;;;62.45;26.70;;;1.00;99.90;;;;;;5095631;28;20044;-77
2022/12/09 09:17:22;;;;;;;53.92;24.92;;;1.10;99.90;;;;;;5095943;28;20562;-78
2022/12/09 09:19:48;;;;;;;67.00;26.25;;;1.10;99.90;;;;;;5096071;28;20193;-76
2022/12/09 09:22:13;;;;;;;58.83;24.65;;;1.20;99.90;;;;;;5095687;28;20505;-76
2022/12/09 09:24:39;;;;;;;94.03;25.98;;;1.20;99.90;;;;;;5095635;28;20077;-76
2022/12/09 09:27:05;;;;;;;74.43;26.33;;;1.20;99.90;;;;;;5095477;28;20067;-76
2022/12/09 09:29:31;;;;;;;60.22;25.27;;;1.20;99.90;;;;;;5095436;28;20052;-76
2022/12/09 09:31:57;;;;;;;58.03;23.70;;;2.40;99.90;;;;;;5095632;28;20066;-75
2022/12/09 09:34:25;;;;;;;83.35;25.90;;;1.30;99.90;;;;;;5095465;28;20476;-76
2022/12/09 09:36:50;;;;;;;63.42;25.75;;;1.30;99.90;;;;;;5095748;28;20456;-76
2022/12/09 09:39:17;;;;;;;70.00;25.70;;;1.30;99.90;;;;;;5095353;28;20079;-76
2022/12/09 09:41:54;;;;;;;55.85;25.33;;;1.30;99.90;;;;;;5095194;28;20040;-76
2022/12/09 09:44:38;;;;;;;126.00;27.23;;;1.40;99.90;;;;;;5095195;28;20043;-76
2022/12/09 09:47:39;;;;;;;58.83;26.42;;;1.40;99.90;;;;;;5095247;28;20480;-77
2022/12/09 09:50:36;;;;;;;74.55;25.98;;;1.40;99.90;;;;;;5095238;28;20044;-77
2022/12/09 09:53:14;;;;;;;62.30;26.25;;;1.40;99.90;;;;;;5094752;28;20113;-76
2022/12/09 09:55:48;;;;;;;58.97;25.35;;;1.40;99.90;;;;;;5095460;28;20086;-76
2022/12/09 09:58:23;;;;;;;56.03;24.50;;;1.50;99.90;;;;;;5095344;28;20042;-76
2022/12/09 10:01:10;;;;;;;53.75;24.30;;;1.50;99.90;;;;;;5095140;28;20048;-79
2022/12/09 10:03:52;;;;;;;52.15;24.80;;;1.70;99.90;;;;;;5094745;28;20491;-75
2022/12/09 10:06:54;;;;;;;59.38;24.10;;;1.50;99.90;;;;;;5094885;28;20052;-76
2022/12/09 10:09:27;;;;;;;57.85;26.15;;;1.60;99.90;;;;;;5094979;28;20089;-75
2022/12/09 10:12:00;;;;;;;58.83;25.05;;;1.70;99.90;;;;;;5094759;28;20130;-76
2022/12/09 10:14:47;;;;;;;59.13;25.88;;;1.70;99.90;;;;;;5094741;28;20040;-75
2022/12/09 10:17:27;;;;;;;53.75;25.23;;;1.70;99.90;;;;;;5093826;28;20054;-76
2022/12/09 10:20:04;;;;;;;66.35;25.48;;;1.70;99.90;;;;;;5094769;28;20048;-74
2022/12/09 10:22:41;;;;;;;56.05;24.95;;;1.80;99.90;;;;;;5094843;28;20123;-76
2022/12/09 10:25:28;;;;;;;56.75;25.40;;;1.80;99.90;;;;;;5094214;28;20420;-77
2022/12/09 10:28:23;;;;;;;56.80;25.45;;;1.80;99.90;;;;;;5094857;28;20062;-75
2022/12/09 10:30:51;;;;;;;56.90;26.13;;;1.80;99.90;;;;;;5022104;28;20062;-75
2022/12/09 10:33:19;;;;;;;60.53;26.38;;;1.70;99.90;;;;;;5094299;28;20094;-75
2022/12/09 10:35:45;;;;;;;55.17;25.40;;;1.70;99.90;;;;;;5094476;28;20040;-76
2022/12/09 10:38:16;;;;;;;51.03;24.20;;;1.70;99.90;;;;;;5094382;28;20040;-76
2022/12/09 10:40:44;;;;;;;57.40;24.90;;;1.80;99.90;;;;;;5093284;28;20286;-76
2022/12/09 10:43:45;;;;;;;59.45;24.35;;;1.80;99.90;;;;;;5094322;28;20113;-76
2022/12/09 10:46:17;;;;;;;56.47;25.58;;;1.80;99.90;;;;;;5051180;28;20052;-76
2022/12/09 10:48:46;;;;;;;59.08;25.98;;;1.90;99.90;;;;;;5094547;28;20054;-77
2022/12/09 10:51:20;;;;;;;53.10;24.52;;;2.00;99.90;;;;;;5094477;28;20044;-79
2022/12/09 10:53:54;;;;;;;61.17;26.67;;;2.00;99.90;;;;;;5094280;28;20051;-76
2022/12/09 10:56:27;;;;;;;54.83;25.45;;;2.10;99.90;;;;;;5094206;28;20056;-76
2022/12/09 10:59:12;;;;;;;53.05;24.98;;;2.20;99.90;;;;;;5094297;28;20054;-76
2022/12/09 11:01:51;;;;;;;52.33;24.33;;;3.20;99.90;;;;;;5093841;28;20070;-76
2022/12/09 11:04:38;;;;;;;54.95;24.15;;;2.40;99.90;;;;;;5094001;28;20520;-76
2022/12/09 11:07:14;;;;;;;59.97;24.87;;;2.40;99.90;;;;;;5094478;28;20483;-76
2022/12/09 11:09:42;;;;;;;51.42;25.15;;;3.30;99.90;;;;;;5093209;28;20369;-76
2022/12/09 11:12:37;;;;;;;50.67;24.10;;;2.50;99.90;;;;;;5093889;28;20055;-75
2022/12/09 11:15:20;;;;;;;53.28;24.23;;;2.50;99.90;;;;;;5094072;28;20036;-75
2022/12/09 11:18:16;;;;;;;46.30;23.27;;;2.50;99.90;;;;;;5093910;28;20078;-73
2022/12/09 11:20:54;;;;;;;50.67;22.83;;;2.60;99.90;;;;;;5093664;28;20040;-75
2022/12/09 11:23:20;;;;;;;47.17;23.52;;;2.60;99.90;;;;;;5094292;28;20065;-77
2022/12/09 11:25:57;;;;;;;48.43;21.47;;;2.60;99.90;;;;;;5093933;28;20090;-76
2022/12/09 11:28:35;;;;;;;42.95;22.25;;;2.60;99.90;;;;;;5098568;28;20287;-74
2022/12/09 11:31:12;;;;;;;43.70;21.15;;;2.50;99.90;;;;;;5105667;28;20048;-74
2022/12/09 11:34:03;;;;;;;42.85;21.75;;;2.50;99.90;;;;;;5100988;28;20127;-75
2022/12/09 11:36:31;;;;;;;42.70;21.38;;;2.50;99.90;;;;;;5097523;28;20036;-75
2022/12/09 11:39:14;;;;;;;42.22;21.00;;;2.50;99.90;;;;;;5097490;28;20051;-73
2022/12/09 11:44:34;;;;;;;38.47;19.60;;;2.60;99.90;;;;;;5097414;28;20117;-75
2022/12/09 11:47:20;;;;;;;41.85;20.00;;;2.60;99.90;;;;;;5097578;28;20048;-74
2022/12/09 11:49:55;;;;;;;37.80;19.30;;;2.60;99.90;;;;;;5097555;28;20178;-74
2022/12/09 11:52:27;;;;;;;40.45;20.20;;;3.00;99.90;;;;;;5097410;28;20052;-73
2022/12/09 11:55:01;;;;;;;38.58;18.02;;;2.70;99.90;;;;;;5097424;28;20051;-75
2022/12/09 11:57:35;;;;;;;40.55;18.80;;;2.70;99.90;;;;;;5097373;28;20051;-75
2022/12/09 12:00:13;;;;;;;34.70;17.75;;;2.70;99.90;;;;;;5097675;28;20071;-77
2022/12/09 12:03:26;;;;;;;35.53;19.00;;;2.80;99.90;;;;;;5097587;28;20048;-77
2022/12/09 12:05:54;;;;;;;38.80;18.70;;;2.80;99.90;;;;;;5035606;28;20549;-77
2022/12/09 12:08:34;;;;;;;37.03;18.52;;;2.90;99.90;;;;;;5097538;28;20052;-81
2022/12/09 12:11:11;;;;;;;36.15;17.77;;;2.90;99.90;;;;;;5097459;28;20451;-79
2022/12/09 12:13:44;;;;;;;38.38;18.55;;;2.90;99.90;;;;;;5097516;28;20044;-80
2022/12/09 12:16:30;;;;;;;35.00;18.27;;;2.90;99.90;;;;;;5097383;28;20127;-79
2022/12/09 12:19:07;;;;;;;37.97;18.20;;;2.90;99.90;;;;;;5097099;28;20080;-71
2022/12/09 12:21:57;;;;;;;36.00;18.40;;;2.90;99.90;;;;;;5096970;28;20544;-79
2022/12/09 12:24:47;;;;;;;34.38;16.48;;;2.90;99.90;;;;;;5096804;28;20491;-79
2022/12/09 12:27:28;;;;;;;31.42;15.43;;;2.90;99.90;;;;;;5097066;28;20526;-77
2022/12/09 12:30:12;;;;;;;30.08;16.08;;;2.90;99.90;;;;;;5094304;28;20495;-76
2022/12/09 12:32:56;;;;;;;31.90;15.88;;;2.90;99.90;;;;;;5094925;28;20052;-76
2022/12/09 12:35:36;;;;;;;28.67;15.60;;;2.90;99.90;;;;;;5094625;28;20040;-77
2022/12/09 12:38:30;;;;;;;27.52;14.70;;;3.00;99.90;;;;;;5094669;28;20458;-77
2022/12/09 12:41:40;;;;;;;28.45;15.20;;;3.00;99.90;;;;;;5094459;28;20044;-77
2022/12/09 12:47:19;;;;;;;26.95;14.45;;;3.00;99.90;;;;;;5096765;28;20408;-76
2022/12/09 12:50:09;;;;;;;29.58;15.48;;;3.00;99.90;;;;;;5096447;28;20123;-77
2022/12/09 12:52:43;;;;;;;35.25;16.70;;;3.10;99.90;;;;;;5096432;28;20373;-76
2022/12/09 12:55:31;;;;;;;30.85;16.27;;;3.10;99.90;;;;;;5095955;28;20445;-76
2022/12/09 12:58:04;;;;;;;29.20;15.45;;;3.10;99.90;;;;;;5096177;28;20044;-77
2022/12/09 13:01:13;;;;;;;33.85;16.48;;;3.80;99.90;;;;;;5096161;28;20123;-76
2022/12/09 13:04:01;;;;;;;30.92;15.93;;;3.10;99.90;;;;;;5050908;28;20055;-76